createdAt,value
2023-01-17T00:01:46.624Z,1.00
2023-01-17T00:04:32.149Z,1.13
2023-01-17T00:07:17.809Z,0.90
2023-01-17T00:09:53.371Z,1.08
2023-01-17T00:12:21.159Z,1.30
2023-01-17T00:14:48.546Z,0.90
2023-01-17T00:17:15.809Z,1.00
2023-01-17T00:20:00.976Z,1.20
2023-01-17T00:22:48.405Z,1.20
2023-01-17T00:25:36.966Z,1.27
2023-01-17T00:28:04.839Z,1.00
2023-01-17T00:30:31.991Z,0.90
2023-01-17T00:32:58.784Z,1.20
2023-01-17T00:35:28.101Z,1.05
2023-01-17T00:38:14.975Z,1.23
2023-01-17T00:40:43.700Z,1.20
2023-01-17T00:43:31.463Z,1.30
2023-01-17T00:46:16.822Z,1.10
2023-01-17T00:49:02.815Z,1.42
2023-01-17T00:51:49.661Z,1.23
2023-01-17T00:54:35.677Z,1.23
2023-01-17T00:57:21.475Z,1.17
2023-01-17T01:00:06.692Z,1.10
2023-01-17T01:02:53.043Z,1.40
2023-01-17T01:05:39.135Z,1.23
2023-01-17T01:08:54.041Z,1.13
2023-01-17T01:11:40.239Z,1.15
2023-01-17T01:14:28.799Z,1.20
2023-01-17T01:17:14.124Z,1.00
2023-01-17T01:19:59.466Z,1.10
2023-01-17T01:22:45.033Z,0.98
2023-01-17T01:25:30.891Z,1.10
2023-01-17T01:28:29.260Z,1.35
2023-01-17T01:31:15.028Z,1.42
2023-01-17T01:33:41.899Z,1.30
2023-01-17T01:36:09.332Z,1.00
2023-01-17T01:38:36.404Z,0.95
2023-01-17T01:41:03.976Z,1.00
2023-01-17T01:43:43.333Z,1.10
2023-01-17T01:46:36.014Z,1.00
2023-01-17T01:49:17.711Z,1.10
2023-01-17T01:51:51.059Z,1.10
2023-01-17T01:54:22.520Z,1.37
2023-01-17T01:56:51.633Z,1.10
2023-01-17T01:59:21.067Z,1.20
2023-01-17T02:01:50.052Z,1.40
2023-01-17T02:04:18.533Z,1.20
2023-01-17T02:06:53.889Z,1.20
2023-01-17T02:09:21.302Z,1.30
2023-01-17T02:11:49.631Z,1.25
2023-01-17T02:14:18.644Z,1.30
2023-01-17T02:16:56.749Z,1.40
2023-01-17T02:19:55.987Z,1.40
2023-01-17T02:22:41.700Z,1.15
2023-01-17T02:25:20.414Z,1.38
2023-01-17T02:27:52.927Z,1.00
2023-01-17T02:30:33.400Z,1.50
2023-01-17T02:33:06.527Z,1.27
2023-01-17T02:36:10.794Z,1.48
2023-01-17T02:38:51.766Z,1.10
2023-01-17T02:41:41.677Z,1.20
2023-01-17T02:44:10.214Z,1.10
2023-01-17T02:46:49.014Z,1.42
2023-01-17T02:49:17.666Z,1.45
2023-01-17T02:52:19.111Z,1.38
2023-01-17T02:54:48.981Z,1.45
2023-01-17T02:57:37.079Z,1.40
2023-01-17T03:00:27.746Z,1.60
2023-01-17T03:03:08.122Z,1.38
2023-01-17T03:06:11.969Z,1.48
2023-01-17T03:08:44.518Z,1.38
2023-01-17T03:11:12.740Z,1.23
2023-01-17T03:13:39.617Z,1.55
2023-01-17T03:16:12.790Z,1.45
2023-01-17T03:18:39.663Z,1.40
2023-01-17T03:21:06.607Z,1.45
2023-01-17T03:23:33.416Z,1.35
2023-01-17T03:26:00.444Z,1.38
2023-01-17T03:28:27.221Z,1.60
2023-01-17T03:30:54.041Z,1.38
2023-01-17T03:33:21.428Z,1.45
2023-01-17T03:35:48.408Z,1.60
2023-01-17T03:38:15.744Z,1.33
2023-01-17T03:40:42.561Z,1.77
2023-01-17T03:43:09.337Z,1.33
2023-01-17T03:45:36.157Z,1.55
2023-01-17T03:48:03.059Z,1.40
2023-01-17T03:50:29.861Z,1.45
2023-01-17T03:52:56.628Z,1.60
2023-01-17T03:55:23.458Z,1.60
2023-01-17T03:57:50.290Z,1.70
2023-01-17T04:00:17.583Z,1.48
2023-01-17T04:02:44.442Z,1.30
2023-01-17T04:05:11.282Z,1.40
2023-01-17T04:07:38.093Z,1.35
2023-01-17T04:10:05.513Z,1.67
2023-01-17T04:12:32.389Z,1.27
2023-01-17T04:14:59.178Z,1.50
2023-01-17T04:17:26.172Z,1.30
2023-01-17T04:19:53.409Z,1.35
2023-01-17T04:22:20.554Z,1.17
2023-01-17T04:24:47.345Z,1.75
2023-01-17T04:27:14.434Z,1.40
2023-01-17T04:29:41.365Z,1.45
2023-01-17T04:32:08.736Z,1.73
2023-01-17T04:34:36.143Z,1.50
2023-01-17T04:37:03.698Z,1.52
2023-01-17T04:39:30.673Z,1.50
2023-01-17T04:41:57.491Z,1.60
2023-01-17T04:44:24.257Z,1.88
2023-01-17T04:46:51.008Z,1.30
2023-01-17T04:49:17.754Z,1.98
2023-01-17T04:51:44.574Z,1.35
2023-01-17T04:54:11.360Z,1.35
2023-01-17T04:56:38.119Z,1.80
2023-01-17T04:59:04.966Z,1.42
2023-01-17T05:01:31.851Z,1.60
2023-01-17T05:03:58.678Z,1.67
2023-01-17T05:06:25.987Z,1.40
2023-01-17T05:08:52.880Z,1.48
2023-01-17T05:11:19.669Z,1.50
2023-01-17T05:13:48.138Z,1.60
2023-01-17T05:16:18.370Z,1.60
2023-01-17T05:18:45.299Z,1.52
2023-01-17T05:21:12.071Z,1.30
2023-01-17T05:23:40.509Z,1.27
2023-01-17T05:26:07.331Z,1.52
2023-01-17T05:28:34.193Z,1.30
2023-01-17T05:31:01.036Z,1.52
2023-01-17T05:33:27.894Z,1.67
2023-01-17T05:35:55.085Z,1.60
2023-01-17T05:38:23.583Z,1.60
2023-01-17T05:40:50.799Z,1.73
2023-01-17T05:43:17.688Z,1.80
2023-01-17T05:45:47.520Z,1.88
2023-01-17T05:48:14.289Z,2.17
2023-01-17T05:50:41.098Z,2.38
2023-01-17T05:53:13.214Z,2.80
2023-01-17T05:55:40.820Z,2.70
2023-01-17T05:58:12.733Z,2.53
2023-01-17T06:00:39.526Z,2.15
2023-01-17T06:03:06.370Z,1.95
2023-01-17T06:05:33.143Z,2.50
2023-01-17T06:07:59.990Z,2.10
2023-01-17T06:10:28.254Z,2.08
2023-01-17T06:13:22.081Z,1.98
2023-01-17T06:15:49.124Z,2.10
2023-01-17T06:18:17.764Z,1.90
2023-01-17T06:20:44.833Z,2.25
2023-01-17T06:23:13.815Z,2.10
2023-01-17T06:25:45.807Z,1.95
2023-01-17T06:28:14.744Z,2.15
2023-01-17T06:30:42.418Z,1.95
2023-01-17T06:33:09.678Z,2.20
2023-01-17T06:35:40.987Z,2.20
2023-01-17T06:38:10.087Z,1.70
2023-01-17T06:40:36.922Z,2.08
2023-01-17T06:43:04.770Z,2.13
2023-01-17T06:45:33.839Z,2.05
2023-01-17T06:48:03.726Z,2.45
2023-01-17T06:50:30.826Z,1.90
2023-01-17T06:53:00.120Z,2.10
2023-01-17T06:55:28.889Z,2.22
2023-01-17T06:58:03.120Z,1.73
2023-01-17T07:00:40.360Z,1.65
2023-01-17T07:03:15.286Z,2.00
2023-01-17T07:05:42.543Z,2.08
2023-01-17T07:08:10.670Z,2.08
2023-01-17T07:10:37.922Z,2.10
2023-01-17T07:13:04.731Z,2.70
2023-01-17T07:15:31.575Z,2.47
2023-01-17T07:18:01.596Z,2.10
2023-01-17T07:20:28.427Z,2.15
2023-01-17T07:22:55.328Z,2.28
2023-01-17T07:25:22.310Z,2.28
2023-01-17T07:27:49.179Z,2.10
2023-01-17T07:30:16.245Z,1.90
2023-01-17T07:32:43.033Z,2.05
2023-01-17T07:35:10.017Z,1.88
2023-01-17T07:37:36.854Z,2.00
2023-01-17T07:40:04.400Z,2.33
2023-01-17T07:42:31.223Z,2.10
2023-01-17T07:44:58.025Z,2.20
2023-01-17T07:47:24.899Z,2.05
2023-01-17T07:49:51.687Z,1.98
2023-01-17T07:52:18.606Z,2.25
2023-01-17T07:54:45.409Z,2.25
2023-01-17T07:57:12.768Z,1.90
2023-01-17T07:59:39.667Z,2.00
2023-01-17T08:02:07.915Z,2.13
2023-01-17T08:04:35.345Z,2.22
2023-01-17T08:07:02.341Z,2.13
2023-01-17T08:09:29.294Z,2.40
2023-01-17T08:11:56.200Z,2.55
2023-01-17T08:14:23.075Z,2.13
2023-01-17T08:16:49.868Z,2.15
2023-01-17T08:19:17.345Z,2.30
2023-01-17T08:21:44.616Z,1.95
2023-01-17T08:24:15.052Z,2.40
2023-01-17T08:26:41.923Z,2.75
2023-01-17T08:29:09.473Z,1.92
2023-01-17T08:31:36.870Z,1.95
2023-01-17T08:34:04.473Z,2.10
2023-01-17T08:36:31.467Z,2.22
2023-01-17T08:38:58.858Z,2.40
2023-01-17T08:41:27.822Z,1.73
2023-01-17T08:43:54.803Z,1.90
2023-01-17T08:46:22.468Z,1.63
2023-01-17T08:48:53.788Z,1.85
2023-01-17T08:51:20.674Z,1.70
2023-01-17T08:53:48.582Z,1.65
2023-01-17T08:56:15.626Z,1.70
2023-01-17T08:58:42.570Z,1.55
2023-01-17T09:01:09.476Z,1.50
2023-01-17T09:03:38.373Z,1.48
2023-01-17T09:06:12.699Z,1.60
2023-01-17T09:08:40.572Z,1.75
2023-01-17T09:11:12.918Z,1.70
2023-01-17T09:13:40.115Z,1.48
2023-01-17T09:16:07.494Z,1.48
2023-01-17T09:18:35.431Z,1.35
2023-01-17T09:21:17.372Z,1.58
2023-01-17T09:23:44.811Z,1.63
2023-01-17T09:26:20.710Z,1.65
2023-01-17T09:28:47.881Z,1.60
2023-01-17T09:31:17.497Z,1.55
2023-01-17T09:33:44.699Z,1.50
2023-01-17T09:36:11.582Z,1.80
2023-01-17T09:38:40.097Z,1.80
2023-01-17T09:41:29.286Z,1.70
2023-01-17T09:44:14.675Z,1.67
2023-01-17T09:46:47.313Z,1.60
2023-01-17T09:49:19.963Z,1.67
2023-01-17T09:51:46.991Z,1.50
2023-01-17T09:54:22.809Z,1.67
2023-01-17T09:57:08.640Z,1.42
2023-01-17T09:59:47.018Z,1.50
2023-01-17T10:02:27.030Z,1.60
2023-01-17T10:05:25.174Z,1.52
2023-01-17T10:08:04.717Z,1.80
2023-01-17T10:11:20.830Z,1.52
2023-01-17T10:14:13.000Z,1.60
2023-01-17T10:17:05.079Z,1.55
2023-01-17T10:19:50.580Z,1.42
2023-01-17T10:22:55.081Z,1.40
2023-01-17T10:25:34.516Z,1.50
2023-01-17T10:28:15.274Z,1.40
2023-01-17T10:30:58.044Z,1.85
2023-01-17T10:33:29.497Z,1.65
2023-01-17T10:35:57.060Z,1.50
2023-01-17T10:38:32.146Z,1.77
2023-01-17T10:41:10.827Z,1.50
2023-01-17T10:44:03.847Z,1.67
2023-01-17T10:46:57.216Z,1.48
2023-01-17T10:49:26.356Z,1.20
2023-01-17T10:52:20.925Z,1.58
2023-01-17T10:55:04.061Z,1.10
2023-01-17T10:57:40.404Z,1.38
2023-01-17T11:00:25.574Z,1.52
2023-01-17T11:02:52.453Z,1.48
2023-01-17T11:05:30.895Z,1.20
2023-01-17T11:08:06.949Z,1.58
2023-01-17T11:10:40.119Z,1.38
2023-01-17T11:13:19.862Z,1.20
2023-01-17T11:15:50.825Z,1.20
2023-01-17T11:18:21.006Z,1.20
2023-01-17T11:20:49.493Z,1.38
2023-01-17T11:23:18.275Z,2.80
2023-01-17T11:25:58.179Z,2.67
2023-01-17T11:28:32.867Z,1.83
2023-01-17T11:31:03.716Z,1.60
2023-01-17T11:33:56.727Z,1.60
2023-01-17T11:36:31.034Z,2.28
2023-01-17T11:41:28.232Z,1.77
2023-01-17T11:43:59.905Z,1.75
2023-01-17T11:46:30.133Z,2.00
2023-01-17T11:49:01.018Z,1.60
2023-01-17T11:51:39.702Z,1.60
2023-01-17T11:54:24.841Z,1.77
2023-01-17T11:56:58.531Z,1.58
2023-01-17T11:59:30.106Z,1.58
2023-01-17T12:02:31.734Z,1.38
2023-01-17T12:05:07.975Z,1.42
2023-01-17T12:07:49.049Z,1.70
2023-01-17T12:10:29.402Z,1.30
2023-01-17T12:13:29.791Z,1.40
2023-01-17T12:16:50.695Z,1.48
2023-01-17T12:19:51.306Z,1.45
2023-01-17T12:22:36.493Z,1.20
2023-01-17T12:25:31.534Z,1.38
2023-01-17T12:28:14.177Z,1.10
2023-01-17T12:30:53.124Z,1.23
2023-01-17T12:33:47.988Z,1.15
2023-01-17T12:39:06.437Z,0.80
2023-01-17T12:41:40.153Z,1.10
2023-01-17T12:44:13.679Z,1.00
2023-01-17T12:46:49.034Z,6.75
2023-01-17T12:49:31.189Z,8.13
2023-01-17T12:52:05.237Z,4.90
2023-01-17T12:54:39.682Z,7.80
2023-01-17T12:57:15.098Z,4.30
2023-01-17T13:00:01.926Z,2.65
2023-01-17T13:02:53.681Z,1.77
2023-01-17T13:05:26.090Z,1.20
2023-01-17T13:08:19.790Z,1.02
2023-01-17T13:11:00.243Z,1.15
2023-01-17T13:13:29.539Z,1.20
2023-01-17T13:16:16.316Z,0.82
2023-01-17T13:18:48.746Z,0.73
2023-01-17T13:21:18.626Z,0.90
2023-01-17T13:23:59.139Z,0.88
2023-01-17T13:26:36.454Z,0.85
2023-01-17T13:29:36.142Z,1.00
2023-01-17T13:32:38.036Z,0.80
2023-01-17T13:35:17.167Z,0.68
2023-01-17T13:37:47.028Z,0.73
2023-01-17T13:40:22.962Z,0.73
2023-01-17T13:42:58.601Z,0.90
2023-01-17T13:45:38.645Z,0.77
2023-01-17T13:48:30.000Z,1.00
2023-01-17T13:51:02.664Z,1.13
2023-01-17T13:53:39.423Z,0.90
2023-01-17T13:56:14.427Z,0.80
2023-01-17T13:58:48.800Z,0.88
2023-01-17T14:01:22.122Z,0.85
2023-01-17T14:03:52.580Z,0.80
2023-01-17T14:06:36.434Z,0.90
2023-01-17T14:09:12.432Z,0.80
2023-01-17T14:12:25.292Z,0.90
2023-01-17T14:14:56.923Z,0.88
2023-01-17T14:17:25.764Z,0.90
2023-01-17T14:20:03.547Z,1.13
2023-01-17T14:22:46.434Z,0.80
2023-01-17T14:25:15.053Z,0.70
2023-01-17T14:27:54.574Z,0.90
2023-01-17T14:30:29.445Z,0.80
2023-01-17T14:32:59.335Z,0.68
2023-01-17T14:35:32.259Z,0.95
2023-01-17T14:38:05.712Z,1.10
2023-01-17T14:40:36.236Z,1.00
2023-01-17T14:43:18.527Z,1.08
2023-01-17T14:45:45.987Z,1.10
2023-01-17T14:48:19.369Z,0.85
2023-01-17T14:50:48.864Z,1.00
2023-01-17T14:53:28.183Z,1.00
2023-01-17T14:56:11.933Z,0.98
2023-01-17T14:58:42.178Z,0.98
2023-01-17T15:01:14.682Z,0.93
2023-01-17T15:03:50.407Z,0.68
2023-01-17T15:06:24.824Z,0.77
2023-01-17T15:08:54.028Z,0.80
2023-01-17T15:11:30.924Z,0.95
2023-01-17T15:14:01.621Z,1.10
2023-01-17T15:16:33.974Z,0.80
2023-01-17T15:19:02.186Z,0.80
2023-01-17T15:21:32.936Z,0.90
2023-01-17T15:24:03.491Z,0.80
2023-01-17T15:26:34.832Z,0.90
2023-01-17T15:29:07.993Z,1.02
2023-01-17T15:31:47.105Z,0.80
2023-01-17T15:34:27.400Z,0.90
2023-01-17T15:36:57.921Z,1.08
2023-01-17T15:39:30.319Z,1.50
2023-01-17T15:42:00.067Z,1.30
2023-01-17T15:44:48.199Z,1.05
2023-01-17T15:47:29.693Z,1.10
2023-01-17T15:49:57.015Z,1.10
2023-01-17T15:52:23.925Z,1.00
2023-01-17T15:54:55.552Z,0.75
2023-01-17T15:57:38.844Z,0.73
2023-01-17T16:00:08.602Z,1.25
2023-01-17T16:02:42.598Z,1.10
2023-01-17T16:05:22.615Z,1.00
2023-01-17T16:07:54.541Z,1.23
2023-01-17T16:10:23.828Z,0.80
2023-01-17T16:12:53.675Z,0.95
2023-01-17T16:15:22.161Z,0.75
2023-01-17T16:17:53.012Z,1.00
2023-01-17T16:20:27.630Z,1.05
2023-01-17T16:22:54.729Z,1.02
2023-01-17T16:25:23.711Z,1.00
2023-01-17T16:27:52.401Z,1.13
2023-01-17T16:30:23.755Z,1.20
2023-01-17T16:32:51.149Z,1.02
2023-01-17T16:35:23.069Z,1.20
2023-01-17T16:37:55.324Z,1.30
2023-01-17T16:40:24.553Z,1.40
2023-01-17T16:42:51.705Z,1.33
2023-01-17T16:45:19.105Z,1.08
2023-01-17T16:47:48.087Z,1.25
2023-01-17T16:50:18.103Z,1.50
2023-01-17T16:52:44.942Z,1.30
2023-01-17T16:55:14.038Z,1.38
2023-01-17T16:57:41.047Z,1.58
2023-01-17T17:00:09.881Z,1.35
2023-01-17T17:02:38.571Z,1.50
2023-01-17T17:05:07.408Z,1.65
2023-01-17T17:07:36.710Z,1.52
2023-01-17T17:10:03.899Z,1.63
2023-01-17T17:12:33.231Z,1.80
2023-01-17T17:15:00.065Z,1.58
2023-01-17T17:17:26.899Z,1.65
2023-01-17T17:19:53.813Z,1.70
2023-01-17T17:22:20.719Z,2.03
2023-01-17T17:24:47.523Z,1.80
2023-01-17T17:27:14.365Z,2.30
2023-01-17T17:29:41.231Z,2.10
2023-01-17T17:32:11.495Z,2.05
2023-01-17T17:34:38.698Z,2.50
2023-01-17T17:37:05.496Z,2.40
2023-01-17T17:39:32.406Z,2.67
2023-01-17T17:41:59.311Z,2.50
2023-01-17T17:44:27.402Z,2.75
2023-01-17T17:46:54.181Z,3.22
2023-01-17T17:49:22.689Z,3.00
2023-01-17T17:51:49.862Z,3.53
2023-01-17T17:54:17.780Z,3.50
2023-01-17T17:56:47.231Z,3.33
2023-01-17T17:59:18.228Z,3.08
2023-01-17T18:01:47.141Z,3.42
2023-01-17T18:04:14.898Z,3.88
2023-01-17T18:06:42.349Z,4.10
2023-01-17T18:09:11.286Z,3.90
2023-01-17T18:11:42.940Z,4.07
2023-01-17T18:14:13.727Z,4.13
2023-01-17T18:16:43.377Z,3.92
2023-01-17T18:19:25.216Z,3.85
2023-01-17T18:21:52.898Z,3.88
2023-01-17T18:24:21.975Z,3.63
2023-01-17T18:26:51.908Z,3.20
2023-01-17T18:29:20.885Z,3.25
2023-01-17T18:31:52.118Z,3.03
2023-01-17T18:34:27.110Z,3.20
2023-01-17T18:36:54.262Z,3.35
2023-01-17T18:39:27.131Z,3.63
2023-01-17T18:41:54.411Z,3.22
2023-01-17T18:44:22.632Z,3.70
2023-01-17T18:46:53.906Z,3.70
2023-01-17T18:49:21.233Z,3.72
2023-01-17T18:51:51.834Z,3.13
2023-01-17T18:54:22.179Z,2.92
2023-01-17T18:56:49.313Z,3.80
2023-01-17T18:59:18.614Z,3.50
2023-01-17T19:01:46.579Z,3.28
2023-01-17T19:04:14.799Z,3.03
2023-01-17T19:06:43.414Z,3.10
2023-01-17T19:09:13.279Z,3.20
2023-01-17T19:11:40.289Z,3.83
2023-01-17T19:14:07.594Z,3.53
2023-01-17T19:16:39.358Z,3.70
2023-01-17T19:19:09.759Z,3.60
2023-01-17T19:21:36.752Z,3.75
2023-01-17T19:24:04.169Z,4.18
2023-01-17T19:26:31.362Z,3.85
2023-01-17T19:28:59.293Z,3.88
2023-01-17T19:31:30.911Z,3.67
2023-01-17T19:33:59.715Z,3.78
2023-01-17T19:36:33.747Z,3.97
2023-01-17T19:39:06.114Z,4.15
2023-01-17T19:41:35.196Z,4.18
2023-01-17T19:44:07.611Z,4.38
2023-01-17T19:46:35.409Z,5.00
2023-01-17T19:49:03.033Z,5.18
2023-01-17T19:51:30.044Z,4.35
2023-01-17T19:53:59.834Z,5.00
2023-01-17T19:56:28.043Z,4.43
2023-01-17T19:58:57.281Z,3.92
2023-01-17T20:01:28.677Z,4.20
2023-01-17T20:03:58.153Z,3.85
2023-01-17T20:06:29.035Z,4.25
2023-01-17T20:08:56.374Z,4.28
2023-01-17T20:11:25.114Z,4.90
2023-01-17T20:13:54.353Z,3.92
2023-01-17T20:16:22.253Z,5.10
2023-01-17T20:18:49.587Z,4.60
2023-01-17T20:21:22.502Z,4.90
2023-01-17T20:23:50.843Z,5.03
2023-01-17T20:26:20.875Z,5.40
2023-01-17T20:28:50.207Z,5.50
2023-01-17T20:31:25.053Z,5.30
2023-01-17T20:33:54.421Z,4.95
2023-01-17T20:36:24.445Z,5.25
2023-01-17T20:38:51.553Z,5.57
2023-01-17T20:41:19.860Z,5.18
2023-01-17T20:43:48.915Z,4.85
2023-01-17T20:46:17.136Z,5.15
2023-01-17T20:48:49.323Z,4.65
2023-01-17T20:51:17.389Z,4.57
2023-01-17T20:53:46.185Z,4.50
2023-01-17T20:56:15.507Z,4.80
2023-01-17T20:58:43.046Z,5.03
2023-01-17T21:01:12.022Z,4.85
2023-01-17T21:03:39.726Z,4.47
2023-01-17T21:06:09.161Z,4.50
2023-01-17T21:08:38.128Z,4.60
2023-01-17T21:11:05.715Z,4.70
2023-01-17T21:13:33.131Z,4.65
2023-01-17T21:16:00.215Z,4.85
2023-01-17T21:18:29.459Z,5.25
2023-01-17T21:21:07.326Z,4.78
2023-01-17T21:23:38.079Z,4.57
2023-01-17T21:26:09.368Z,4.68
2023-01-17T21:28:38.339Z,4.35
2023-01-17T21:31:19.513Z,4.90
2023-01-17T21:33:47.608Z,4.25
2023-01-17T21:36:14.692Z,5.88
2023-01-17T21:38:41.436Z,5.70
2023-01-17T21:41:08.275Z,4.32
2023-01-17T21:43:35.167Z,4.40
2023-01-17T21:46:04.737Z,4.53
2023-01-17T21:48:31.619Z,4.60
2023-01-17T21:51:09.304Z,4.68
2023-01-17T21:53:37.425Z,5.35
2023-01-17T21:56:25.226Z,4.22
2023-01-17T21:58:56.460Z,5.35
2023-01-17T22:01:29.394Z,4.53
2023-01-17T22:03:59.356Z,4.97
2023-01-17T22:06:30.030Z,4.88
2023-01-17T22:08:57.065Z,4.78
2023-01-17T22:11:25.730Z,4.38
2023-01-17T22:13:53.479Z,4.43
2023-01-17T22:16:23.851Z,3.80
2023-01-17T22:18:51.083Z,4.57
2023-01-17T22:21:21.046Z,4.35
2023-01-17T22:23:53.141Z,4.43
2023-01-17T22:26:22.342Z,3.90
2023-01-17T22:28:49.140Z,4.10
2023-01-17T22:31:20.894Z,4.60
2023-01-17T22:33:52.038Z,3.70
2023-01-17T22:36:20.181Z,3.90
2023-01-17T22:38:47.412Z,4.15
2023-01-17T22:41:20.103Z,3.58
2023-01-17T22:43:49.752Z,3.65
2023-01-17T22:46:19.460Z,3.60
2023-01-17T22:48:47.009Z,3.70
2023-01-17T22:51:16.361Z,3.38
2023-01-17T22:53:45.153Z,3.83
2023-01-17T22:56:14.461Z,3.85
2023-01-17T22:58:44.907Z,3.13
2023-01-17T23:01:21.307Z,3.38
2023-01-17T23:03:52.592Z,3.47
2023-01-17T23:06:30.465Z,3.67
2023-01-17T23:09:00.119Z,3.67
2023-01-17T23:11:45.008Z,3.65
2023-01-17T23:14:23.804Z,3.08
2023-01-17T23:17:20.583Z,3.35
2023-01-17T23:19:49.701Z,3.45
2023-01-17T23:22:20.849Z,3.38
2023-01-17T23:24:51.943Z,3.45
2023-01-17T23:27:58.212Z,3.42
2023-01-17T23:30:36.655Z,3.70
2023-01-17T23:33:07.227Z,3.13
2023-01-17T23:35:41.258Z,3.45
2023-01-17T23:38:31.187Z,3.53
2023-01-17T23:41:20.581Z,3.40
2023-01-17T23:44:05.434Z,3.15
2023-01-17T23:46:32.353Z,3.65
2023-01-17T23:48:59.222Z,3.17
2023-01-17T23:51:26.054Z,2.83
2023-01-17T23:53:57.306Z,3.22
2023-01-17T23:56:24.873Z,2.55
2023-01-17T23:58:51.721Z,2.75
